sensor_id;sensor_type;location;lat;lon;timestamp;P1;durP1;ratioP1;P2;durP2;ratioP2
3225;SDS011;1625;49.884;8.666;2023-01-08T00:02:15;6.77;;;6.17;;
3225;SDS011;1625;49.884;8.666;2023-01-08T00:04:41;7.23;;;6.30;;
3225;SDS011;1625;49.884;8.666;2023-01-08T00:07:07;7.33;;;6.63;;
3225;SDS011;1625;49.884;8.666;2023-01-08T00:09:32;8.23;;;7.43;;
3225;SDS011;1625;49.884;8.666;2023-01-08T00:11:57;7.07;;;6.47;;
3225;SDS011;1625;49.884;8.666;2023-01-08T00:14:23;6.50;;;6.00;;
3225;SDS011;1625;49.884;8.666;2023-01-08T00:16:48;6.43;;;5.93;;
3225;SDS011;1625;49.884;8.666;2023-01-08T00:19:15;6.47;;;5.87;;
3225;SDS011;1625;49.884;8.666;2023-01-08T00:21:41;6.27;;;5.77;;
3225;SDS011;1625;49.884;8.666;2023-01-08T00:24:06;6.20;;;5.70;;
3225;SDS011;1625;49.884;8.666;2023-01-08T00:26:32;5.87;;;5.47;;
3225;SDS011;1625;49.884;8.666;2023-01-08T00:28:57;6.30;;;5.80;;
3225;SDS011;1625;49.884;8.666;2023-01-08T00:31:23;6.30;;;5.70;;
3225;SDS011;1625;49.884;8.666;2023-01-08T00:33:49;6.17;;;5.67;;
3225;SDS011;1625;49.884;8.666;2023-01-08T00:36:15;6.30;;;5.80;;
3225;SDS011;1625;49.884;8.666;2023-01-08T00:38:43;6.13;;;5.63;;
3225;SDS011;1625;49.884;8.666;2023-01-08T00:41:09;6.30;;;5.70;;
3225;SDS011;1625;49.884;8.666;2023-01-08T00:43:36;7.17;;;5.67;;
3225;SDS011;1625;49.884;8.666;2023-01-08T00:46:02;5.80;;;5.33;;
3225;SDS011;1625;49.884;8.666;2023-01-08T00:48:28;6.37;;;5.87;;
3225;SDS011;1625;49.884;8.666;2023-01-08T00:50:55;5.80;;;5.30;;
3225;SDS011;1625;49.884;8.666;2023-01-08T00:53:21;5.90;;;5.30;;
3225;SDS011;1625;49.884;8.666;2023-01-08T00:55:47;7.20;;;5.50;;
3225;SDS011;1625;49.884;8.666;2023-01-08T00:58:13;5.80;;;5.40;;
3225;SDS011;1625;49.884;8.666;2023-01-08T01:00:39;5.57;;;5.00;;
3225;SDS011;1625;49.884;8.666;2023-01-08T01:03:05;6.20;;;5.50;;
3225;SDS011;1625;49.884;8.666;2023-01-08T01:05:30;5.73;;;5.23;;
3225;SDS011;1625;49.884;8.666;2023-01-08T01:07:56;6.07;;;5.50;;
3225;SDS011;1625;49.884;8.666;2023-01-08T01:10:22;5.13;;;4.73;;
3225;SDS011;1625;49.884;8.666;2023-01-08T01:12:48;6.00;;;5.13;;
3225;SDS011;1625;49.884;8.666;2023-01-08T01:15:14;5.77;;;5.20;;
3225;SDS011;1625;49.884;8.666;2023-01-08T01:17:42;5.83;;;5.33;;
3225;SDS011;1625;49.884;8.666;2023-01-08T01:20:09;6.10;;;4.77;;
3225;SDS011;1625;49.884;8.666;2023-01-08T01:22:36;5.30;;;4.90;;
3225;SDS011;1625;49.884;8.666;2023-01-08T01:25:02;5.00;;;4.60;;
3225;SDS011;1625;49.884;8.666;2023-01-08T01:27:28;4.97;;;4.57;;
3225;SDS011;1625;49.884;8.666;2023-01-08T01:29:54;5.60;;;5.10;;
3225;SDS011;1625;49.884;8.666;2023-01-08T01:32:19;5.30;;;4.80;;
3225;SDS011;1625;49.884;8.666;2023-01-08T01:34:45;5.20;;;4.70;;
3225;SDS011;1625;49.884;8.666;2023-01-08T01:37:11;5.57;;;5.07;;
3225;SDS011;1625;49.884;8.666;2023-01-08T01:39:37;5.17;;;4.70;;
3225;SDS011;1625;49.884;8.666;2023-01-08T01:42:03;5.30;;;4.90;;
3225;SDS011;1625;49.884;8.666;2023-01-08T01:52:26;5.97;;;5.43;;
3225;SDS011;1625;49.884;8.666;2023-01-08T01:54:53;5.30;;;4.80;;
3225;SDS011;1625;49.884;8.666;2023-01-08T01:57:19;5.13;;;4.73;;
3225;SDS011;1625;49.884;8.666;2023-01-08T01:59:45;5.50;;;5.00;;
3225;SDS011;1625;49.884;8.666;2023-01-08T02:02:12;5.47;;;5.07;;
3225;SDS011;1625;49.884;8.666;2023-01-08T02:04:38;5.57;;;5.07;;
3225;SDS011;1625;49.884;8.666;2023-01-08T02:07:07;6.00;;;5.50;;
3225;SDS011;1625;49.884;8.666;2023-01-08T02:09:47;5.63;;;5.10;;
3225;SDS011;1625;49.884;8.666;2023-01-08T02:17:43;7.43;;;6.40;;
3225;SDS011;1625;49.884;8.666;2023-01-08T02:20:20;6.90;;;6.30;;
3225;SDS011;1625;49.884;8.666;2023-01-08T02:23:07;5.83;;;5.33;;
3225;SDS011;1625;49.884;8.666;2023-01-08T02:28:29;6.50;;;6.00;;
3225;SDS011;1625;49.884;8.666;2023-01-08T02:30:57;9.53;;;6.03;;
3225;SDS011;1625;49.884;8.666;2023-01-08T02:33:26;7.10;;;6.43;;
3225;SDS011;1625;49.884;8.666;2023-01-08T02:35:53;6.10;;;5.60;;
3225;SDS011;1625;49.884;8.666;2023-01-08T02:38:39;7.00;;;6.37;;
3225;SDS011;1625;49.884;8.666;2023-01-08T02:41:19;6.20;;;5.70;;
3225;SDS011;1625;49.884;8.666;2023-01-08T02:43:51;6.83;;;6.17;;
3225;SDS011;1625;49.884;8.666;2023-01-08T02:46:25;6.80;;;6.20;;
3225;SDS011;1625;49.884;8.666;2023-01-08T02:49:00;7.00;;;6.20;;
3225;SDS011;1625;49.884;8.666;2023-01-08T02:51:32;7.30;;;6.50;;
3225;SDS011;1625;49.884;8.666;2023-01-08T02:54:05;6.87;;;6.17;;
3225;SDS011;1625;49.884;8.666;2023-01-08T02:56:36;6.93;;;6.33;;
3225;SDS011;1625;49.884;8.666;2023-01-08T02:59:14;7.17;;;6.50;;
3225;SDS011;1625;49.884;8.666;2023-01-08T03:01:40;6.17;;;5.77;;
3225;SDS011;1625;49.884;8.666;2023-01-08T03:04:08;6.40;;;5.90;;
3225;SDS011;1625;49.884;8.666;2023-01-08T03:06:40;6.40;;;5.90;;
3225;SDS011;1625;49.884;8.666;2023-01-08T03:09:07;6.90;;;6.40;;
3225;SDS011;1625;49.884;8.666;2023-01-08T03:11:44;6.80;;;6.20;;
3225;SDS011;1625;49.884;8.666;2023-01-08T03:14:16;5.80;;;5.30;;
3225;SDS011;1625;49.884;8.666;2023-01-08T03:16:48;6.70;;;6.07;;
3225;SDS011;1625;49.884;8.666;2023-01-08T03:19:20;6.20;;;5.70;;
3225;SDS011;1625;49.884;8.666;2023-01-08T03:21:49;6.40;;;5.80;;
3225;SDS011;1625;49.884;8.666;2023-01-08T03:24:17;5.60;;;5.10;;
3225;SDS011;1625;49.884;8.666;2023-01-08T03:26:47;6.13;;;5.53;;
3225;SDS011;1625;49.884;8.666;2023-01-08T03:29:16;6.90;;;6.30;;
3225;SDS011;1625;49.884;8.666;2023-01-08T03:31:44;5.97;;;5.47;;
3225;SDS011;1625;49.884;8.666;2023-01-08T03:34:12;6.60;;;6.00;;
3225;SDS011;1625;49.884;8.666;2023-01-08T03:36:40;5.97;;;5.37;;
3225;SDS011;1625;49.884;8.666;2023-01-08T03:39:29;6.50;;;5.90;;
3225;SDS011;1625;49.884;8.666;2023-01-08T03:42:01;6.50;;;5.80;;
3225;SDS011;1625;49.884;8.666;2023-01-08T03:44:31;6.00;;;5.50;;
3225;SDS011;1625;49.884;8.666;2023-01-08T03:46:56;5.70;;;5.30;;
3225;SDS011;1625;49.884;8.666;2023-01-08T03:49:23;6.20;;;5.67;;
3225;SDS011;1625;49.884;8.666;2023-01-08T03:51:51;5.80;;;5.30;;
3225;SDS011;1625;49.884;8.666;2023-01-08T03:54:18;6.50;;;5.90;;
3225;SDS011;1625;49.884;8.666;2023-01-08T03:56:45;5.57;;;5.07;;
3225;SDS011;1625;49.884;8.666;2023-01-08T03:59:11;5.93;;;5.53;;
3225;SDS011;1625;49.884;8.666;2023-01-08T04:01:37;6.10;;;5.60;;
3225;SDS011;1625;49.884;8.666;2023-01-08T04:04:03;6.40;;;5.80;;
3225;SDS011;1625;49.884;8.666;2023-01-08T04:06:29;5.83;;;5.40;;
3225;SDS011;1625;49.884;8.666;2023-01-08T04:08:54;5.43;;;4.93;;
3225;SDS011;1625;49.884;8.666;2023-01-08T04:11:20;5.67;;;5.27;;
3225;SDS011;1625;49.884;8.666;2023-01-08T04:13:45;6.40;;;5.80;;
3225;SDS011;1625;49.884;8.666;2023-01-08T04:16:11;6.30;;;5.80;;
3225;SDS011;1625;49.884;8.666;2023-01-08T04:18:36;5.87;;;5.40;;
3225;SDS011;1625;49.884;8.666;2023-01-08T04:21:02;6.10;;;5.50;;
3225;SDS011;1625;49.884;8.666;2023-01-08T04:23:28;5.60;;;5.10;;
3225;SDS011;1625;49.884;8.666;2023-01-08T04:25:53;5.80;;;5.30;;
3225;SDS011;1625;49.884;8.666;2023-01-08T04:28:19;5.80;;;5.20;;
3225;SDS011;1625;49.884;8.666;2023-01-08T04:30:45;6.37;;;5.87;;
3225;SDS011;1625;49.884;8.666;2023-01-08T04:33:10;6.10;;;5.50;;
3225;SDS011;1625;49.884;8.666;2023-01-08T04:35:36;5.63;;;5.13;;
3225;SDS011;1625;49.884;8.666;2023-01-08T04:38:02;7.80;;;6.40;;
3225;SDS011;1625;49.884;8.666;2023-01-08T04:40:28;6.60;;;6.10;;
3225;SDS011;1625;49.884;8.666;2023-01-08T04:42:53;7.10;;;6.50;;
3225;SDS011;1625;49.884;8.666;2023-01-08T04:45:19;8.27;;;6.07;;
3225;SDS011;1625;49.884;8.666;2023-01-08T04:47:44;6.63;;;6.13;;
3225;SDS011;1625;49.884;8.666;2023-01-08T04:50:10;6.73;;;6.03;;
3225;SDS011;1625;49.884;8.666;2023-01-08T04:52:36;7.90;;;6.80;;
3225;SDS011;1625;49.884;8.666;2023-01-08T04:55:01;6.17;;;5.67;;
3225;SDS011;1625;49.884;8.666;2023-01-08T04:57:27;5.50;;;5.00;;
3225;SDS011;1625;49.884;8.666;2023-01-08T04:59:53;5.97;;;5.40;;
3225;SDS011;1625;49.884;8.666;2023-01-08T05:02:18;5.97;;;5.47;;
3225;SDS011;1625;49.884;8.666;2023-01-08T05:04:44;5.70;;;5.20;;
3225;SDS011;1625;49.884;8.666;2023-01-08T05:07:09;5.83;;;4.90;;
3225;SDS011;1625;49.884;8.666;2023-01-08T05:09:35;5.27;;;4.80;;
3225;SDS011;1625;49.884;8.666;2023-01-08T05:12:00;5.30;;;4.80;;
3225;SDS011;1625;49.884;8.666;2023-01-08T05:14:26;5.27;;;4.77;;
3225;SDS011;1625;49.884;8.666;2023-01-08T05:16:51;5.10;;;4.63;;
3225;SDS011;1625;49.884;8.666;2023-01-08T05:19:17;5.50;;;5.00;;
3225;SDS011;1625;49.884;8.666;2023-01-08T05:21:42;4.93;;;4.53;;
3225;SDS011;1625;49.884;8.666;2023-01-08T05:24:08;6.53;;;4.70;;
3225;SDS011;1625;49.884;8.666;2023-01-08T05:26:33;5.90;;;5.10;;
3225;SDS011;1625;49.884;8.666;2023-01-08T05:28:59;4.57;;;4.17;;
3225;SDS011;1625;49.884;8.666;2023-01-08T05:31:25;4.27;;;3.87;;
3225;SDS011;1625;49.884;8.666;2023-01-08T05:33:50;5.37;;;4.30;;
3225;SDS011;1625;49.884;8.666;2023-01-08T05:36:16;5.13;;;4.43;;
3225;SDS011;1625;49.884;8.666;2023-01-08T05:38:41;4.63;;;4.23;;
3225;SDS011;1625;49.884;8.666;2023-01-08T05:41:07;4.63;;;4.33;;
3225;SDS011;1625;49.884;8.666;2023-01-08T05:43:34;5.20;;;4.70;;
3225;SDS011;1625;49.884;8.666;2023-01-08T05:46:00;4.90;;;4.50;;
3225;SDS011;1625;49.884;8.666;2023-01-08T05:48:27;5.07;;;4.67;;
3225;SDS011;1625;49.884;8.666;2023-01-08T05:50:54;4.30;;;4.00;;
3225;SDS011;1625;49.884;8.666;2023-01-08T05:53:20;5.13;;;4.70;;
3225;SDS011;1625;49.884;8.666;2023-01-08T05:55:46;5.23;;;4.73;;
3225;SDS011;1625;49.884;8.666;2023-01-08T05:58:12;5.03;;;4.53;;
3225;SDS011;1625;49.884;8.666;2023-01-08T06:00:38;4.20;;;3.90;;
3225;SDS011;1625;49.884;8.666;2023-01-08T06:03:04;4.13;;;3.83;;
3225;SDS011;1625;49.884;8.666;2023-01-08T06:05:30;4.47;;;4.17;;
3225;SDS011;1625;49.884;8.666;2023-01-08T06:07:56;5.07;;;4.57;;
3225;SDS011;1625;49.884;8.666;2023-01-08T06:10:22;4.60;;;4.23;;
3225;SDS011;1625;49.884;8.666;2023-01-08T06:12:48;4.20;;;3.80;;
3225;SDS011;1625;49.884;8.666;2023-01-08T06:15:13;4.73;;;4.20;;
3225;SDS011;1625;49.884;8.666;2023-01-08T06:17:40;3.83;;;3.53;;
3225;SDS011;1625;49.884;8.666;2023-01-08T06:20:06;3.90;;;3.60;;
3225;SDS011;1625;49.884;8.666;2023-01-08T06:22:38;4.20;;;3.90;;
3225;SDS011;1625;49.884;8.666;2023-01-08T06:25:04;4.13;;;3.73;;
3225;SDS011;1625;49.884;8.666;2023-01-08T06:27:31;4.20;;;3.90;;
3225;SDS011;1625;49.884;8.666;2023-01-08T06:29:56;5.03;;;4.33;;
3225;SDS011;1625;49.884;8.666;2023-01-08T06:32:22;3.93;;;3.63;;
3225;SDS011;1625;49.884;8.666;2023-01-08T06:34:47;3.90;;;3.60;;
3225;SDS011;1625;49.884;8.666;2023-01-08T06:37:13;4.50;;;4.10;;
3225;SDS011;1625;49.884;8.666;2023-01-08T06:39:39;3.63;;;3.33;;
3225;SDS011;1625;49.884;8.666;2023-01-08T06:42:07;3.40;;;3.13;;
3225;SDS011;1625;49.884;8.666;2023-01-08T06:54:41;3.07;;;2.87;;
3225;SDS011;1625;49.884;8.666;2023-01-08T06:57:07;2.60;;;2.40;;
3225;SDS011;1625;49.884;8.666;2023-01-08T06:59:33;2.77;;;2.57;;
3225;SDS011;1625;49.884;8.666;2023-01-08T07:01:58;2.77;;;2.57;;
3225;SDS011;1625;49.884;8.666;2023-01-08T07:04:23;3.70;;;3.40;;
3225;SDS011;1625;49.884;8.666;2023-01-08T07:06:50;3.57;;;3.27;;
3225;SDS011;1625;49.884;8.666;2023-01-08T07:09:16;3.50;;;3.27;;
3225;SDS011;1625;49.884;8.666;2023-01-08T07:11:41;3.37;;;3.07;;
3225;SDS011;1625;49.884;8.666;2023-01-08T07:14:07;4.47;;;4.10;;
3225;SDS011;1625;49.884;8.666;2023-01-08T07:16:32;4.10;;;3.80;;
3225;SDS011;1625;49.884;8.666;2023-01-08T07:18:58;4.20;;;3.80;;
3225;SDS011;1625;49.884;8.666;2023-01-08T07:21:23;4.50;;;4.10;;
3225;SDS011;1625;49.884;8.666;2023-01-08T07:23:49;4.10;;;3.77;;
3225;SDS011;1625;49.884;8.666;2023-01-08T07:26:14;4.77;;;4.37;;
3225;SDS011;1625;49.884;8.666;2023-01-08T07:28:41;4.23;;;3.83;;
3225;SDS011;1625;49.884;8.666;2023-01-08T07:31:07;4.40;;;4.00;;
3225;SDS011;1625;49.884;8.666;2023-01-08T07:33:33;4.33;;;3.93;;
3225;SDS011;1625;49.884;8.666;2023-01-08T07:35:59;4.73;;;4.43;;
3225;SDS011;1625;49.884;8.666;2023-01-08T07:38:25;4.47;;;4.10;;
3225;SDS011;1625;49.884;8.666;2023-01-08T07:40:51;4.17;;;3.77;;
3225;SDS011;1625;49.884;8.666;2023-01-08T07:43:22;4.47;;;4.17;;
3225;SDS011;1625;49.884;8.666;2023-01-08T07:45:54;4.57;;;4.17;;
3225;SDS011;1625;49.884;8.666;2023-01-08T07:48:23;4.33;;;3.93;;
3225;SDS011;1625;49.884;8.666;2023-01-08T07:50:59;3.90;;;3.60;;
3225;SDS011;1625;49.884;8.666;2023-01-08T07:53:25;4.60;;;4.20;;
3225;SDS011;1625;49.884;8.666;2023-01-08T07:55:50;3.63;;;3.33;;
3225;SDS011;1625;49.884;8.666;2023-01-08T07:58:17;4.40;;;4.00;;
3225;SDS011;1625;49.884;8.666;2023-01-08T08:00:42;4.13;;;3.83;;
3225;SDS011;1625;49.884;8.666;2023-01-08T08:03:08;4.33;;;3.93;;
3225;SDS011;1625;49.884;8.666;2023-01-08T08:05:37;3.70;;;3.50;;
3225;SDS011;1625;49.884;8.666;2023-01-08T08:08:06;4.30;;;3.63;;
3225;SDS011;1625;49.884;8.666;2023-01-08T08:10:34;3.80;;;3.50;;
3225;SDS011;1625;49.884;8.666;2023-01-08T08:13:00;3.70;;;3.40;;
3225;SDS011;1625;49.884;8.666;2023-01-08T08:15:25;4.23;;;3.93;;
3225;SDS011;1625;49.884;8.666;2023-01-08T08:17:51;3.70;;;3.40;;
3225;SDS011;1625;49.884;8.666;2023-01-08T08:20:16;3.70;;;3.40;;
3225;SDS011;1625;49.884;8.666;2023-01-08T08:22:42;3.47;;;3.17;;
3225;SDS011;1625;49.884;8.666;2023-01-08T08:25:08;4.80;;;4.07;;
3225;SDS011;1625;49.884;8.666;2023-01-08T08:27:34;4.10;;;3.70;;
3225;SDS011;1625;49.884;8.666;2023-01-08T08:30:00;4.47;;;4.07;;
3225;SDS011;1625;49.884;8.666;2023-01-08T08:32:25;4.20;;;3.90;;
3225;SDS011;1625;49.884;8.666;2023-01-08T10:00:17;4.90;;;4.50;;
3225;SDS011;1625;49.884;8.666;2023-01-08T10:02:50;4.73;;;4.33;;
3225;SDS011;1625;49.884;8.666;2023-01-08T10:05:18;4.63;;;4.13;;
3225;SDS011;1625;49.884;8.666;2023-01-08T11:24:15;3.97;;;3.60;;
3225;SDS011;1625;49.884;8.666;2023-01-08T11:26:47;4.10;;;3.80;;
3225;SDS011;1625;49.884;8.666;2023-01-08T11:29:16;3.70;;;3.40;;
3225;SDS011;1625;49.884;8.666;2023-01-08T11:34:34;4.30;;;3.67;;
3225;SDS011;1625;49.884;8.666;2023-01-08T11:39:37;3.40;;;3.10;;
3225;SDS011;1625;49.884;8.666;2023-01-08T11:47:47;2.80;;;2.60;;
3225;SDS011;1625;49.884;8.666;2023-01-08T11:53:23;2.70;;;2.40;;
3225;SDS011;1625;49.884;8.666;2023-01-08T12:03:17;2.30;;;2.10;;
3225;SDS011;1625;49.884;8.666;2023-01-08T12:06:10;2.90;;;2.43;;
3225;SDS011;1625;49.884;8.666;2023-01-08T12:09:28;2.60;;;2.40;;
3225;SDS011;1625;49.884;8.666;2023-01-08T12:15:03;2.90;;;2.47;;
3225;SDS011;1625;49.884;8.666;2023-01-08T12:17:57;2.87;;;2.57;;
3225;SDS011;1625;49.884;8.666;2023-01-08T12:23:48;2.90;;;2.70;;
3225;SDS011;1625;49.884;8.666;2023-01-08T12:26:26;3.00;;;2.80;;
3225;SDS011;1625;49.884;8.666;2023-01-08T12:31:38;3.30;;;3.10;;
3225;SDS011;1625;49.884;8.666;2023-01-08T13:47:01;2.87;;;2.50;;
3225;SDS011;1625;49.884;8.666;2023-01-08T13:49:34;3.40;;;3.20;;
3225;SDS011;1625;49.884;8.666;2023-01-08T13:52:30;3.33;;;3.00;;
3225;SDS011;1625;49.884;8.666;2023-01-08T14:34:21;2.80;;;2.60;;
3225;SDS011;1625;49.884;8.666;2023-01-08T14:43:38;3.90;;;3.13;;
3225;SDS011;1625;49.884;8.666;2023-01-08T14:46:11;2.70;;;2.50;;
3225;SDS011;1625;49.884;8.666;2023-01-08T14:48:48;3.10;;;2.90;;
3225;SDS011;1625;49.884;8.666;2023-01-08T14:51:14;3.57;;;3.27;;
3225;SDS011;1625;49.884;8.666;2023-01-08T14:53:47;3.33;;;3.03;;
3225;SDS011;1625;49.884;8.666;2023-01-08T14:56:29;3.10;;;2.83;;
3225;SDS011;1625;49.884;8.666;2023-01-08T14:58:57;3.90;;;3.30;;
3225;SDS011;1625;49.884;8.666;2023-01-08T15:01:24;3.60;;;3.30;;
3225;SDS011;1625;49.884;8.666;2023-01-08T15:04:02;3.40;;;3.10;;
3225;SDS011;1625;49.884;8.666;2023-01-08T15:06:37;3.70;;;3.40;;
3225;SDS011;1625;49.884;8.666;2023-01-08T15:09:12;3.33;;;3.10;;
3225;SDS011;1625;49.884;8.666;2023-01-08T15:12:00;3.20;;;3.00;;
3225;SDS011;1625;49.884;8.666;2023-01-08T16:55:58;2.27;;;2.07;;
3225;SDS011;1625;49.884;8.666;2023-01-08T16:58:36;2.53;;;2.33;;
3225;SDS011;1625;49.884;8.666;2023-01-08T17:01:27;7.07;;;2.13;;
3225;SDS011;1625;49.884;8.666;2023-01-08T17:03:54;2.00;;;1.90;;
3225;SDS011;1625;49.884;8.666;2023-01-08T17:40:58;2.50;;;2.13;;
3225;SDS011;1625;49.884;8.666;2023-01-08T17:43:57;2.47;;;2.27;;
3225;SDS011;1625;49.884;8.666;2023-01-08T17:54:15;2.43;;;2.13;;
3225;SDS011;1625;49.884;8.666;2023-01-08T17:56:42;1.93;;;1.83;;
3225;SDS011;1625;49.884;8.666;2023-01-08T17:59:11;2.07;;;1.87;;
3225;SDS011;1625;49.884;8.666;2023-01-08T18:04:55;2.33;;;2.13;;
3225;SDS011;1625;49.884;8.666;2023-01-08T18:07:22;2.30;;;2.10;;
3225;SDS011;1625;49.884;8.666;2023-01-08T18:20:10;2.20;;;2.03;;
3225;SDS011;1625;49.884;8.666;2023-01-08T18:22:36;3.00;;;2.33;;
3225;SDS011;1625;49.884;8.666;2023-01-08T18:25:02;2.00;;;1.90;;
3225;SDS011;1625;49.884;8.666;2023-01-08T18:27:28;2.20;;;1.87;;
3225;SDS011;1625;49.884;8.666;2023-01-08T18:29:54;2.47;;;2.27;;
3225;SDS011;1625;49.884;8.666;2023-01-08T19:02:44;2.37;;;2.17;;
3225;SDS011;1625;49.884;8.666;2023-01-08T19:13:13;2.10;;;1.97;;
3225;SDS011;1625;49.884;8.666;2023-01-08T19:16:12;2.20;;;2.00;;
3225;SDS011;1625;49.884;8.666;2023-01-08T19:23:16;2.83;;;2.63;;
3225;SDS011;1625;49.884;8.666;2023-01-08T19:26:30;2.70;;;2.50;;
3225;SDS011;1625;49.884;8.666;2023-01-08T19:32:58;2.50;;;2.30;;
3225;SDS011;1625;49.884;8.666;2023-01-08T19:49:43;3.27;;;2.20;;
3225;SDS011;1625;49.884;8.666;2023-01-08T19:53:14;2.97;;;2.67;;
3225;SDS011;1625;49.884;8.666;2023-01-08T19:55:45;3.10;;;2.80;;
